Time;durP1;ratioP1;P1;durP2;ratioP2;P2;SDS_P1;SDS_P2;PMS_P1;PMS_P2;Temp;Humidity;BMP_temperature;BMP_pressure;BME280_temperature;BME280_humidity;BME280_pressure;Samples;Min_cycle;Max_cycle;Signal;HPM_P1;HPM_P2
2023/12/15 00:00:16;;;;;;;21.87;14.53;;;9.60;99.90;;;;;;5092140;28;20320;-68
2023/12/15 00:02:42;;;;;;;22.87;14.80;;;9.60;99.90;;;;;;5088080;28;21044;-68
2023/12/15 00:05:09;;;;;;;23.53;13.90;;;9.60;99.90;;;;;;5088404;28;20791;-68
2023/12/15 00:07:35;;;;;;;20.47;14.40;;;9.60;99.90;;;;;;5088933;28;20861;-69
2023/12/15 00:10:01;;;;;;;23.07;15.00;;;9.60;99.90;;;;;;5090722;28;20412;-69
2023/12/15 00:12:27;;;;;;;17.97;13.40;;;9.50;99.90;;;;;;5094969;28;20418;-68
2023/12/15 00:14:52;;;;;;;21.33;13.67;;;9.40;99.90;;;;;;5094023;28;20446;-69
2023/12/15 00:17:18;;;;;;;23.40;14.40;;;9.40;99.90;;;;;;5094867;28;20177;-69
2023/12/15 00:19:44;;;;;;;18.00;14.20;;;9.30;99.90;;;;;;5094770;28;20181;-70
2023/12/15 00:22:10;;;;;;;24.97;14.20;;;9.40;99.90;;;;;;5095114;28;20236;-66
2023/12/15 00:24:36;;;;;;;18.93;14.00;;;9.30;99.90;;;;;;5087880;28;20453;-69
2023/12/15 00:27:02;;;;;;;22.63;13.23;;;9.30;99.90;;;;;;5092863;28;20452;-69
2023/12/15 00:29:28;;;;;;;22.60;14.30;;;9.20;99.90;;;;;;5092674;28;20423;-69
2023/12/15 00:31:53;;;;;;;21.93;13.80;;;9.20;99.90;;;;;;5092664;28;20431;-69
2023/12/15 00:34:19;;;;;;;20.67;12.10;;;9.20;99.90;;;;;;5094108;28;20175;-69
2023/12/15 00:36:45;;;;;;;17.50;12.93;;;9.20;99.90;;;;;;5092960;28;20501;-69
2023/12/15 00:39:11;;;;;;;18.53;12.93;;;9.20;99.90;;;;;;5093081;28;20771;-69
2023/12/15 00:41:37;;;;;;;16.80;11.87;;;9.20;99.90;;;;;;5089782;28;20465;-69
2023/12/15 00:44:03;;;;;;;16.60;12.90;;;9.10;99.90;;;;;;5093479;28;20216;-69
2023/12/15 00:46:29;;;;;;;18.37;13.33;;;9.10;99.90;;;;;;5094887;28;20468;-69
2023/12/15 00:48:55;;;;;;;19.70;13.47;;;9.10;99.90;;;;;;5091804;28;20426;-69
2023/12/15 00:51:21;;;;;;;17.53;12.90;;;9.10;99.90;;;;;;5092996;28;20899;-70
2023/12/15 00:53:47;;;;;;;19.50;12.57;;;9.10;99.90;;;;;;5092389;28;20521;-70
2023/12/15 00:56:13;;;;;;;17.60;11.90;;;9.10;99.90;;;;;;5092197;28;20507;-71
2023/12/15 00:58:39;;;;;;;16.63;12.13;;;9.10;99.90;;;;;;5081942;28;20178;-62
2023/12/15 01:01:06;;;;;;;18.57;13.07;;;9.10;99.90;;;;;;5094272;28;20231;-70
2023/12/15 01:03:32;;;;;;;20.50;13.40;;;9.10;99.90;;;;;;5089411;28;20473;-70
2023/12/15 01:05:58;;;;;;;19.10;13.93;;;9.10;99.90;;;;;;5075903;28;20424;-70
2023/12/15 01:08:24;;;;;;;17.43;12.53;;;9.10;99.90;;;;;;5075075;28;20654;-70
2023/12/15 01:10:50;;;;;;;18.13;13.37;;;9.20;99.90;;;;;;5092578;28;20426;-70
2023/12/15 01:13:16;;;;;;;17.90;12.33;;;9.20;99.90;;;;;;5077064;28;20443;-70
2023/12/15 01:15:41;;;;;;;18.40;13.30;;;9.20;99.90;;;;;;5091332;28;20229;-69
2023/12/15 01:18:07;;;;;;;19.90;12.90;;;9.20;99.90;;;;;;5093776;28;20825;-69
2023/12/15 01:20:33;;;;;;;15.93;13.47;;;9.30;99.90;;;;;;5089797;28;20182;-69
2023/12/15 01:22:59;;;;;;;17.63;12.37;;;9.30;99.90;;;;;;5093739;28;20231;-69
2023/12/15 01:25:24;;;;;;;17.30;13.00;;;9.30;99.90;;;;;;5084430;28;20464;-69
2023/12/15 01:27:50;;;;;;;17.60;13.10;;;9.40;99.90;;;;;;5083143;28;20711;-69
2023/12/15 01:30:16;;;;;;;17.57;12.30;;;9.40;99.90;;;;;;5094923;28;20178;-69
2023/12/15 01:32:42;;;;;;;17.67;12.13;;;9.40;99.90;;;;;;5076253;28;20203;-69
2023/12/15 01:35:08;;;;;;;16.90;12.83;;;9.40;99.90;;;;;;5087816;28;20599;-70
2023/12/15 01:37:34;;;;;;;18.37;12.07;;;9.40;99.90;;;;;;5085875;28;20257;-69
2023/12/15 01:40:00;;;;;;;17.00;11.60;;;9.40;99.90;;;;;;5088135;28;20510;-69
2023/12/15 01:42:26;;;;;;;19.77;12.10;;;9.40;99.90;;;;;;5091455;28;20291;-69
2023/12/15 01:44:52;;;;;;;18.53;11.70;;;9.30;99.90;;;;;;5092911;28;20411;-69
2023/12/15 01:47:19;;;;;;;19.23;13.17;;;9.20;99.90;;;;;;5075710;28;20412;-69
2023/12/15 01:49:46;;;;;;;18.00;12.00;;;9.30;99.90;;;;;;5082213;28;20455;-69
2023/12/15 01:52:12;;;;;;;17.30;12.10;;;9.30;99.90;;;;;;5077526;28;20420;-69
2023/12/15 01:54:38;;;;;;;15.57;11.60;;;9.40;99.90;;;;;;5097493;28;21024;-69
2023/12/15 01:57:04;;;;;;;16.10;11.73;;;9.30;99.90;;;;;;5091809;28;20924;-70
2023/12/15 01:59:44;;;;;;;17.00;11.47;;;9.30;99.90;;;;;;5089135;28;20494;-69
2023/12/15 02:02:09;;;;;;;16.63;11.37;;;9.40;99.90;;;;;;5092413;28;20818;-68
2023/12/15 02:04:36;;;;;;;18.43;10.93;;;9.40;99.90;;;;;;5086613;28;20411;-70
2023/12/15 02:07:02;;;;;;;18.70;12.40;;;9.40;99.90;;;;;;5082039;28;20927;-69
2023/12/15 02:09:28;;;;;;;19.60;13.00;;;9.40;99.90;;;;;;5092302;28;20427;-69
2023/12/15 02:11:54;;;;;;;16.90;12.20;;;9.40;99.90;;;;;;5088319;28;20881;-69
2023/12/15 02:14:20;;;;;;;21.63;14.33;;;9.40;99.90;;;;;;5093388;28;20221;-70
2023/12/15 02:16:45;;;;;;;16.23;11.90;;;9.40;99.90;;;;;;5084991;28;20633;-69
2023/12/15 02:19:11;;;;;;;19.80;12.10;;;9.40;99.90;;;;;;5075308;28;20169;-69
2023/12/15 02:21:37;;;;;;;17.17;12.00;;;9.40;99.90;;;;;;5091610;28;20219;-70
2023/12/15 02:24:03;;;;;;;18.33;12.43;;;9.40;99.90;;;;;;5080910;28;20237;-65
2023/12/15 02:26:28;;;;;;;19.10;13.33;;;9.50;99.90;;;;;;5090251;28;20268;-69
2023/12/15 02:28:54;;;;;;;19.13;12.50;;;9.50;99.90;;;;;;5102470;28;20218;-69
2023/12/15 02:31:21;;;;;;;19.40;12.17;;;9.60;99.90;;;;;;5100292;28;20204;-69
2023/12/15 02:33:48;;;;;;;18.17;12.73;;;9.60;99.90;;;;;;5083998;28;20542;-69
2023/12/15 02:36:21;;;;;;;17.63;12.80;;;9.60;99.90;;;;;;5090000;28;20524;-70
2023/12/15 02:38:47;;;;;;;22.70;13.13;;;9.60;99.90;;;;;;5073195;28;20884;-69
2023/12/15 02:41:13;;;;;;;19.40;13.00;;;9.60;99.90;;;;;;5084065;28;20514;-70
2023/12/15 02:43:40;;;;;;;23.57;14.33;;;9.60;99.90;;;;;;5082083;28;20470;-70
2023/12/15 02:46:06;;;;;;;21.57;15.10;;;9.60;99.90;;;;;;5083712;28;20429;-70
2023/12/15 02:48:32;;;;;;;21.70;14.97;;;9.70;99.90;;;;;;5093077;28;20426;-70
2023/12/15 02:50:58;;;;;;;23.07;15.00;;;9.70;99.90;;;;;;5085244;28;20910;-70
2023/12/15 02:53:24;;;;;;;25.43;15.53;;;9.70;99.90;;;;;;5077147;28;20524;-70
2023/12/15 02:55:50;;;;;;;23.40;15.60;;;9.80;99.90;;;;;;5074345;28;20782;-70
2023/12/15 02:58:18;;;;;;;23.17;15.77;;;9.70;99.90;;;;;;5085480;28;20188;-70
2023/12/15 03:00:46;;;;;;;24.30;16.10;;;9.80;99.90;;;;;;5106825;28;20171;-70
2023/12/15 03:03:12;;;;;;;24.10;16.27;;;9.80;99.90;;;;;;5092785;28;20455;-69
2023/12/15 03:05:38;;;;;;;23.23;16.33;;;9.80;99.90;;;;;;5091593;28;20417;-70
2023/12/15 03:08:04;;;;;;;22.70;14.83;;;9.80;99.90;;;;;;5085064;28;20495;-70
2023/12/15 03:10:30;;;;;;;21.87;15.67;;;9.90;99.90;;;;;;5073709;28;20178;-70
2023/12/15 03:12:56;;;;;;;22.00;15.40;;;9.80;99.90;;;;;;5081089;28;20932;-69
2023/12/15 03:15:21;;;;;;;23.60;17.20;;;9.90;99.90;;;;;;5087992;28;20728;-70
2023/12/15 03:17:47;;;;;;;23.47;17.23;;;9.90;99.90;;;;;;5088853;28;20177;-65
2023/12/15 03:20:13;;;;;;;24.13;16.53;;;9.70;99.90;;;;;;5090912;28;20584;-70
2023/12/15 03:22:39;;;;;;;22.60;17.07;;;9.80;99.90;;;;;;5091207;28;20739;-70
2023/12/15 03:25:06;;;;;;;26.27;16.77;;;9.70;99.90;;;;;;5083234;28;20525;-70
2023/12/15 03:27:32;;;;;;;25.63;17.93;;;9.70;99.90;;;;;;5091510;28;20178;-70
2023/12/15 03:29:58;;;;;;;22.07;15.87;;;9.70;99.90;;;;;;5089694;28;20419;-69
2023/12/15 03:32:23;;;;;;;22.60;16.93;;;9.60;99.90;;;;;;5093923;28;20488;-69
2023/12/15 03:34:49;;;;;;;22.77;16.53;;;9.60;99.90;;;;;;5073152;28;20516;-68
2023/12/15 03:37:16;;;;;;;23.67;16.10;;;9.60;99.90;;;;;;5089510;28;20194;-69
2023/12/15 03:39:42;;;;;;;26.10;16.93;;;9.60;99.90;;;;;;5087439;28;20251;-68
2023/12/15 03:42:08;;;;;;;22.53;16.70;;;9.70;99.90;;;;;;5072010;28;20748;-68
2023/12/15 03:44:36;;;;;;;22.17;16.23;;;9.70;99.90;;;;;;5078376;28;20441;-69
2023/12/15 03:47:02;;;;;;;26.03;17.17;;;9.70;99.90;;;;;;5084620;28;20180;-68
2023/12/15 03:49:28;;;;;;;24.73;16.73;;;9.80;99.90;;;;;;5074193;28;20422;-69
2023/12/15 03:51:54;;;;;;;23.57;16.03;;;9.80;99.90;;;;;;5081767;28;21186;-69
2023/12/15 03:54:19;;;;;;;24.30;16.80;;;9.90;99.90;;;;;;5072692;28;20183;-69
2023/12/15 03:56:45;;;;;;;23.63;16.27;;;9.90;99.90;;;;;;5081596;28;20221;-69
2023/12/15 03:59:11;;;;;;;20.40;16.70;;;9.90;99.90;;;;;;5086764;28;20267;-69
2023/12/15 04:01:36;;;;;;;26.33;17.90;;;10.00;99.90;;;;;;5094130;28;20183;-69
2023/12/15 04:04:02;;;;;;;22.07;16.03;;;10.00;99.90;;;;;;5101015;28;20691;-69
2023/12/15 04:06:28;;;;;;;25.07;18.17;;;10.10;99.90;;;;;;5080416;28;20181;-69
2023/12/15 04:08:54;;;;;;;23.43;17.37;;;10.10;99.90;;;;;;5087995;28;20271;-69
2023/12/15 04:11:20;;;;;;;20.47;16.03;;;10.10;99.90;;;;;;5090898;28;20184;-69
2023/12/15 04:13:46;;;;;;;26.97;18.13;;;10.10;99.90;;;;;;5092131;28;20689;-69
2023/12/15 04:16:12;;;;;;;19.70;16.90;;;10.10;99.90;;;;;;5081317;28;20423;-70
2023/12/15 04:18:37;;;;;;;20.20;17.03;;;10.20;99.90;;;;;;5079900;28;20934;-71
2023/12/15 04:21:03;;;;;;;21.13;16.90;;;10.20;99.90;;;;;;5091706;28;20183;-70
2023/12/15 04:23:29;;;;;;;25.77;17.57;;;10.20;99.90;;;;;;5089304;28;20204;-69
2023/12/15 04:25:58;;;;;;;21.33;15.90;;;10.20;99.90;;;;;;5088563;28;20421;-69
2023/12/15 04:28:25;;;;;;;22.70;16.67;;;10.10;99.90;;;;;;5106386;28;20424;-69
2023/12/15 04:30:51;;;;;;;21.50;16.80;;;10.00;99.90;;;;;;5112558;28;20438;-62
2023/12/15 04:33:17;;;;;;;24.07;16.70;;;10.00;99.90;;;;;;5090707;28;20428;-69
2023/12/15 04:35:43;;;;;;;22.43;15.67;;;9.90;99.90;;;;;;5073837;28;20412;-68
2023/12/15 04:38:09;;;;;;;26.37;17.00;;;9.90;99.90;;;;;;5072250;28;20165;-69
2023/12/15 04:40:35;;;;;;;23.40;16.50;;;10.00;99.90;;;;;;5077840;28;20175;-69
2023/12/15 04:43:00;;;;;;;20.67;16.30;;;10.00;99.90;;;;;;5072035;28;20201;-68
2023/12/15 04:45:27;;;;;;;21.30;17.13;;;9.90;99.90;;;;;;5086478;28;20275;-69
2023/12/15 04:47:54;;;;;;;20.63;15.50;;;10.00;99.90;;;;;;5084148;28;20174;-65
2023/12/15 04:50:20;;;;;;;20.27;15.73;;;9.90;99.90;;;;;;5084913;28;20417;-68
2023/12/15 04:52:46;;;;;;;24.97;16.40;;;9.80;99.90;;;;;;5082042;28;20516;-69
2023/12/15 04:55:12;;;;;;;24.43;16.40;;;9.80;99.90;;;;;;5084055;28;20567;-69
2023/12/15 04:57:38;;;;;;;21.03;15.27;;;9.80;99.90;;;;;;5093749;28;20510;-68
2023/12/15 05:00:04;;;;;;;21.70;15.20;;;9.80;99.90;;;;;;5101586;28;20567;-69
2023/12/15 05:02:30;;;;;;;22.57;15.53;;;9.90;99.90;;;;;;5087634;28;20217;-68
2023/12/15 05:04:56;;;;;;;21.23;15.00;;;9.90;99.90;;;;;;5087674;28;20421;-68
2023/12/15 05:07:21;;;;;;;24.67;16.17;;;9.90;99.90;;;;;;5085198;28;20221;-68
2023/12/15 05:09:47;;;;;;;21.90;16.03;;;9.90;99.90;;;;;;5093175;28;20179;-66
2023/12/15 05:12:13;;;;;;;18.53;14.90;;;10.00;99.90;;;;;;5094965;28;20195;-68
2023/12/15 05:14:39;;;;;;;16.80;14.53;;;10.00;99.90;;;;;;5091573;28;20457;-69
2023/12/15 05:17:05;;;;;;;18.60;14.47;;;10.00;99.90;;;;;;5081472;28;20190;-68
2023/12/15 05:19:30;;;;;;;17.43;14.10;;;10.00;99.90;;;;;;5077892;28;20220;-68
2023/12/15 05:21:56;;;;;;;18.87;14.50;;;10.00;99.90;;;;;;5090206;28;20518;-68
2023/12/15 05:24:22;;;;;;;18.67;14.17;;;10.00;99.90;;;;;;5075205;28;20227;-68
2023/12/15 05:26:47;;;;;;;17.13;12.87;;;10.10;99.90;;;;;;5078394;28;20226;-67
2023/12/15 05:29:14;;;;;;;17.30;12.20;;;10.10;99.90;;;;;;5093101;28;20185;-68
2023/12/15 05:31:43;;;;;;;19.70;14.20;;;10.00;99.90;;;;;;5081031;28;20513;-68
2023/12/15 05:34:08;;;;;;;17.67;12.40;;;10.10;99.90;;;;;;5075066;28;20414;-68
2023/12/15 05:36:34;;;;;;;20.57;14.90;;;10.10;99.90;;;;;;5084734;28;20429;-68
2023/12/15 05:39:00;;;;;;;18.97;13.57;;;10.10;99.90;;;;;;5124034;27;20179;-67
2023/12/15 05:41:26;;;;;;;17.63;12.20;;;10.10;99.90;;;;;;5093592;28;20185;-68
2023/12/15 05:43:51;;;;;;;16.90;13.80;;;10.00;99.90;;;;;;5082200;28;20220;-68
2023/12/15 05:46:19;;;;;;;17.13;12.63;;;10.10;99.90;;;;;;5085509;28;20425;-68
2023/12/15 05:48:45;;;;;;;16.27;13.30;;;10.10;99.90;;;;;;5093813;28;20173;-68
2023/12/15 05:51:11;;;;;;;15.90;12.37;;;10.10;99.90;;;;;;5080858;28;20422;-68
2023/12/15 05:53:36;;;;;;;15.80;12.37;;;10.10;99.90;;;;;;5075209;28;20273;-68
2023/12/15 05:56:02;;;;;;;17.50;13.27;;;10.00;99.90;;;;;;5092624;28;20209;-68
2023/12/15 05:58:28;;;;;;;13.50;11.50;;;10.00;99.90;;;;;;5093694;28;20236;-69
2023/12/15 06:00:54;;;;;;;19.10;13.40;;;10.00;99.90;;;;;;5077051;28;20421;-69
2023/12/15 06:03:19;;;;;;;15.77;11.70;;;10.00;99.90;;;;;;5074750;28;20210;-68
2023/12/15 06:05:45;;;;;;;15.97;13.43;;;10.00;99.90;;;;;;5083394;28;20673;-69
2023/12/15 06:08:13;;;;;;;16.30;12.63;;;10.00;99.90;;;;;;5093786;28;20172;-69
2023/12/15 06:10:41;;;;;;;16.37;12.83;;;10.00;99.90;;;;;;5088249;28;20533;-69
2023/12/15 06:13:06;;;;;;;16.73;12.60;;;10.00;99.90;;;;;;5073573;28;20514;-68
2023/12/15 06:15:32;;;;;;;17.80;12.30;;;9.90;99.90;;;;;;5075929;28;20540;-68
2023/12/15 06:17:58;;;;;;;14.60;11.80;;;10.00;99.90;;;;;;5092371;28;20178;-65
2023/12/15 06:20:24;;;;;;;15.77;11.90;;;10.00;99.90;;;;;;5089762;28;20188;-68
2023/12/15 06:22:51;;;;;;;16.93;13.40;;;9.90;99.90;;;;;;5090260;28;20683;-69
2023/12/15 06:25:17;;;;;;;17.53;13.63;;;9.90;99.90;;;;;;5078106;28;20615;-69
2023/12/15 06:27:42;;;;;;;18.43;13.43;;;9.90;99.90;;;;;;5090885;28;20468;-69
2023/12/15 06:30:08;;;;;;;15.17;13.13;;;9.90;99.90;;;;;;5082328;28;20422;-69
2023/12/15 06:32:35;;;;;;;16.97;12.67;;;10.00;99.90;;;;;;5075037;28;20185;-69
2023/12/15 06:35:01;;;;;;;19.50;14.10;;;10.00;99.90;;;;;;5084665;28;20420;-68
2023/12/15 06:37:27;;;;;;;16.00;12.00;;;10.00;99.90;;;;;;5074637;28;20417;-69
2023/12/15 06:39:53;;;;;;;17.20;13.27;;;10.00;99.90;;;;;;5085378;28;22216;-69
2023/12/15 06:42:19;;;;;;;20.23;14.33;;;10.00;99.90;;;;;;5074159;28;20214;-69
2023/12/15 06:44:46;;;;;;;20.10;14.07;;;9.90;99.90;;;;;;5091401;28;20525;-69
2023/12/15 06:47:13;;;;;;;18.23;13.13;;;9.90;99.90;;;;;;5119117;27;20190;-70
2023/12/15 06:49:39;;;;;;;20.30;13.47;;;9.90;99.90;;;;;;5088144;28;20448;-68
2023/12/15 06:52:05;;;;;;;18.77;13.40;;;10.00;99.90;;;;;;5090810;28;20890;-69
2023/12/15 06:54:31;;;;;;;22.73;15.50;;;10.00;99.90;;;;;;5073455;28;20418;-69
2023/12/15 06:56:57;;;;;;;18.77;13.50;;;10.00;99.90;;;;;;5092986;28;20813;-69
2023/12/15 06:59:22;;;;;;;19.67;14.83;;;10.00;99.90;;;;;;5090792;28;20180;-73
2023/12/15 07:01:48;;;;;;;21.77;14.13;;;9.90;99.90;;;;;;5085969;28;20254;-73
2023/12/15 07:04:14;;;;;;;20.90;15.33;;;9.90;99.90;;;;;;5083161;28;20209;-72
2023/12/15 07:06:40;;;;;;;25.67;16.00;;;9.90;99.90;;;;;;5086916;28;20185;-69
2023/12/15 07:09:05;;;;;;;24.57;16.30;;;9.90;99.90;;;;;;5089220;28;20184;-72
2023/12/15 07:11:31;;;;;;;26.33;16.30;;;9.90;99.90;;;;;;5097350;28;20174;-72
2023/12/15 07:13:57;;;;;;;19.27;14.20;;;9.90;99.90;;;;;;5101867;28;20185;-72
2023/12/15 07:16:22;;;;;;;21.50;15.57;;;9.90;99.90;;;;;;5078811;28;20488;-72
2023/12/15 07:18:48;;;;;;;20.97;14.30;;;9.90;99.90;;;;;;5087287;28;20228;-73
2023/12/15 07:21:14;;;;;;;19.40;14.70;;;10.00;99.90;;;;;;5093482;28;20173;-72
2023/12/15 07:23:40;;;;;;;24.20;16.43;;;10.00;99.90;;;;;;5096827;28;20574;-72
2023/12/15 07:26:06;;;;;;;20.17;15.43;;;10.10;99.90;;;;;;5095989;28;20172;-72
2023/12/15 07:28:31;;;;;;;18.53;13.93;;;10.10;99.90;;;;;;5088051;28;20181;-72
2023/12/15 07:30:57;;;;;;;21.60;15.83;;;10.20;99.90;;;;;;5091458;28;20174;-72
2023/12/15 07:33:23;;;;;;;20.40;14.87;;;10.20;99.90;;;;;;5091699;28;20176;-72
2023/12/15 07:35:48;;;;;;;19.57;14.70;;;10.30;99.90;;;;;;5092267;28;20181;-72
2023/12/15 07:38:14;;;;;;;23.57;14.97;;;10.30;99.90;;;;;;5100432;28;20242;-70
2023/12/15 07:40:40;;;;;;;19.13;13.60;;;10.30;99.90;;;;;;5085574;28;20169;-72
2023/12/15 07:43:06;;;;;;;25.63;15.40;;;10.30;99.90;;;;;;5097719;28;20306;-72
2023/12/15 07:45:32;;;;;;;19.23;14.80;;;10.30;99.90;;;;;;5092497;28;20926;-77
2023/12/15 07:47:58;;;;;;;21.37;15.57;;;10.50;99.90;;;;;;5092258;28;20551;-70
2023/12/15 07:50:24;;;;;;;20.10;14.33;;;10.50;99.90;;;;;;5092541;28;20199;-74
2023/12/15 07:52:50;;;;;;;21.47;16.10;;;10.50;99.90;;;;;;5109257;28;20432;-76
2023/12/15 07:55:17;;;;;;;22.57;15.37;;;10.50;99.90;;;;;;5092090;28;20241;-76
2023/12/15 07:57:43;;;;;;;21.47;14.53;;;10.50;99.90;;;;;;5092289;28;20420;-76
2023/12/15 08:00:12;;;;;;;28.30;15.93;;;10.50;99.90;;;;;;5091205;28;20424;-76
2023/12/15 08:02:38;;;;;;;24.90;16.77;;;10.40;99.90;;;;;;5092338;28;20274;-76
2023/12/15 08:05:04;;;;;;;21.83;14.63;;;10.50;99.90;;;;;;5091904;28;20417;-66
2023/12/15 08:07:30;;;;;;;25.43;15.87;;;10.50;99.90;;;;;;5091571;28;20178;-76
2023/12/15 08:09:55;;;;;;;26.07;16.07;;;10.60;99.90;;;;;;5091662;28;20185;-73
2023/12/15 08:12:21;;;;;;;22.33;16.33;;;10.60;99.90;;;;;;5093783;28;20287;-75
2023/12/15 08:14:47;;;;;;;21.77;15.30;;;10.50;99.90;;;;;;5091766;28;20267;-76
2023/12/15 08:17:12;;;;;;;23.23;16.60;;;10.60;99.90;;;;;;5091910;28;20201;-76
2023/12/15 08:19:38;;;;;;;23.20;15.40;;;10.60;99.90;;;;;;5092102;28;20187;-76
2023/12/15 08:22:04;;;;;;;23.30;16.07;;;10.60;99.90;;;;;;5094909;28;20187;-76
2023/12/15 08:24:30;;;;;;;30.27;17.07;;;10.70;99.90;;;;;;5091314;28;20417;-76
2023/12/15 08:26:57;;;;;;;24.63;16.50;;;10.70;99.90;;;;;;5091150;28;20504;-77
2023/12/15 08:29:24;;;;;;;21.33;15.40;;;10.70;99.90;;;;;;5092836;28;20205;-77
2023/12/15 08:31:49;;;;;;;23.47;15.10;;;10.80;99.90;;;;;;5105186;28;20433;-76
2023/12/15 08:34:15;;;;;;;24.40;17.47;;;10.70;99.90;;;;;;5101788;28;20785;-80
2023/12/15 08:36:41;;;;;;;24.63;16.83;;;10.70;99.90;;;;;;5116845;28;20697;-74
2023/12/15 08:39:07;;;;;;;26.63;16.77;;;10.70;99.90;;;;;;5123776;27;20404;-74
2023/12/15 08:41:32;;;;;;;25.67;16.70;;;10.70;99.90;;;;;;5100699;28;20567;-75
2023/12/15 08:43:58;;;;;;;30.03;16.90;;;10.70;99.90;;;;;;5102575;28;20213;-70
2023/12/15 08:46:24;;;;;;;23.43;15.30;;;10.60;99.90;;;;;;5095511;28;20180;-70
2023/12/15 08:48:51;;;;;;;25.50;15.77;;;10.50;99.90;;;;;;5094753;28;20270;-71
2023/12/15 08:51:17;;;;;;;28.30;15.77;;;10.60;99.90;;;;;;5094535;28;22176;-69
2023/12/15 08:53:43;;;;;;;27.77;15.93;;;10.50;99.90;;;;;;5095366;28;20420;-71
2023/12/15 08:56:09;;;;;;;26.43;15.47;;;10.40;99.90;;;;;;5095889;28;20938;-70
2023/12/15 08:58:35;;;;;;;26.73;16.40;;;10.50;99.90;;;;;;5116332;28;20444;-71
2023/12/15 09:01:01;;;;;;;25.13;15.13;;;10.50;99.90;;;;;;5115921;28;20920;-71
2023/12/15 09:03:27;;;;;;;25.73;15.47;;;10.40;99.90;;;;;;5115504;27;20695;-71
2023/12/15 09:05:53;;;;;;;33.37;17.90;;;10.40;99.90;;;;;;5116084;28;20404;-71
2023/12/15 09:08:19;;;;;;;29.33;18.00;;;10.40;99.90;;;;;;5112369;28;20304;-71
2023/12/15 09:10:50;;;;;;;29.27;16.43;;;10.40;99.90;;;;;;5103267;28;20433;-69
2023/12/15 09:13:17;;;;;;;23.90;16.70;;;10.50;99.90;;;;;;5082061;28;20518;-70
2023/12/15 09:15:43;;;;;;;22.87;16.23;;;10.50;99.90;;;;;;5116047;28;20774;-71
2023/12/15 09:18:08;;;;;;;28.73;17.43;;;10.40;99.90;;;;;;5096390;28;20428;-62
2023/12/15 09:20:35;;;;;;;21.90;15.70;;;10.40;99.90;;;;;;5094376;28;20493;-71
2023/12/15 09:23:07;;;;;;;26.33;17.57;;;10.40;99.90;;;;;;5093736;28;20449;-71
2023/12/15 09:25:32;;;;;;;25.53;17.87;;;10.40;99.90;;;;;;5093634;28;20411;-71
2023/12/15 09:27:58;;;;;;;25.73;17.43;;;10.50;99.90;;;;;;5096164;28;20928;-72
2023/12/15 09:30:24;;;;;;;24.07;15.60;;;10.50;99.90;;;;;;5094219;28;20189;-72
2023/12/15 09:32:50;;;;;;;24.10;16.43;;;10.50;99.90;;;;;;5095317;28;20178;-71
2023/12/15 09:35:17;;;;;;;25.50;15.27;;;10.50;99.90;;;;;;5087394;28;20190;-71
2023/12/15 09:37:43;;;;;;;26.10;16.17;;;10.50;99.90;;;;;;5094647;28;20540;-71
2023/12/15 09:40:10;;;;;;;30.07;17.33;;;10.60;99.90;;;;;;5093722;28;20432;-71
2023/12/15 09:42:35;;;;;;;29.70;17.93;;;10.60;99.90;;;;;;5100149;28;20452;-70
2023/12/15 09:45:01;;;;;;;25.67;15.30;;;10.60;99.90;;;;;;5089204;28;20435;-70
2023/12/15 09:47:28;;;;;;;21.07;14.17;;;10.60;99.90;;;;;;5078060;28;20261;-72
2023/12/15 09:49:57;;;;;;;22.90;15.93;;;10.70;99.90;;;;;;5108543;28;20259;-68
2023/12/15 09:52:25;;;;;;;24.03;15.40;;;10.70;99.90;;;;;;5085944;28;20418;-70
2023/12/15 09:54:51;;;;;;;27.83;14.87;;;10.60;99.90;;;;;;5094360;28;20422;-70
2023/12/15 09:57:18;;;;;;;24.57;16.50;;;10.60;99.90;;;;;;5093961;28;20898;-71
2023/12/15 09:59:44;;;;;;;22.13;15.13;;;10.60;99.90;;;;;;5094143;28;20432;-69
2023/12/15 10:02:10;;;;;;;22.47;14.60;;;10.60;99.90;;;;;;5093261;28;20503;-69
2023/12/15 10:04:36;;;;;;;19.60;14.00;;;10.50;99.90;;;;;;5094449;28;20175;-69
2023/12/15 10:07:02;;;;;;;25.50;14.57;;;10.60;99.90;;;;;;5094181;28;20426;-70
2023/12/15 10:09:28;;;;;;;25.40;14.93;;;10.60;99.90;;;;;;5092870;28;20211;-70
2023/12/15 10:11:54;;;;;;;21.37;15.07;;;10.60;99.90;;;;;;5094546;28;20447;-69
2023/12/15 10:14:20;;;;;;;21.63;14.37;;;10.70;99.90;;;;;;5102560;28;20227;-68
2023/12/15 10:16:46;;;;;;;23.47;15.67;;;10.70;99.90;;;;;;5097781;28;20183;-69
2023/12/15 10:19:12;;;;;;;23.43;15.70;;;10.70;99.90;;;;;;5089049;28;20692;-64
2023/12/15 10:21:38;;;;;;;22.50;15.17;;;10.80;99.90;;;;;;5102217;28;20433;-69
2023/12/15 10:24:24;;;;;;;25.00;15.67;;;10.80;99.90;;;;;;5106803;28;21038;-69
2023/12/15 10:26:50;;;;;;;27.17;14.70;;;10.90;99.90;;;;;;5110212;28;20469;-68
2023/12/15 10:29:21;;;;;;;24.77;14.90;;;10.80;99.90;;;;;;5109184;28;20428;-69
2023/12/15 10:31:51;;;;;;;27.67;15.20;;;10.90;99.90;;;;;;5079034;28;20427;-69
2023/12/15 10:34:17;;;;;;;90.60;51.77;;;10.90;99.90;;;;;;5102547;28;20430;-68
2023/12/15 10:36:46;;;;;;;713.47;468.50;;;10.90;99.90;;;;;;5093901;28;20475;-69
2023/12/15 10:39:17;;;;;;;49.53;33.03;;;10.90;99.90;;;;;;5093176;28;20420;-69
2023/12/15 10:41:44;;;;;;;23.50;16.57;;;11.00;99.90;;;;;;5099918;28;20562;-70
2023/12/15 10:44:11;;;;;;;23.80;15.00;;;11.00;99.90;;;;;;5098582;28;20910;-70
2023/12/15 10:46:40;;;;;;;23.47;14.47;;;11.00;99.90;;;;;;5093378;28;21282;-76
2023/12/15 10:49:09;;;;;;;20.40;15.00;;;11.00;99.90;;;;;;5094922;28;20932;-70
2023/12/15 10:51:38;;;;;;;26.60;16.60;;;10.90;99.90;;;;;;5089344;28;20433;-70
2023/12/15 10:54:05;;;;;;;25.17;15.40;;;10.70;99.90;;;;;;5093520;28;20425;-73
2023/12/15 10:56:32;;;;;;;27.17;16.93;;;10.90;99.90;;;;;;5091023;28;21770;-69
2023/12/15 10:59:01;;;;;;;28.97;16.90;;;10.80;99.90;;;;;;5091197;28;20460;-69
2023/12/15 11:01:28;;;;;;;29.40;19.50;;;10.80;99.90;;;;;;5072550;28;20404;-73
2023/12/15 11:03:54;;;;;;;29.53;20.20;;;11.50;99.90;;;;;;5071994;28;20512;-73
2023/12/15 11:06:33;;;;;;;27.87;18.10;;;11.70;99.90;;;;;;5072600;28;20412;-73
2023/12/15 11:09:00;;;;;;;30.37;18.20;;;12.00;99.90;;;;;;5088442;28;20656;-72
2023/12/15 11:11:29;;;;;;;29.40;17.27;;;12.40;99.90;;;;;;5072413;28;20397;-72
2023/12/15 11:14:02;;;;;;;26.43;17.07;;;12.30;99.90;;;;;;5072341;28;20899;-72
2023/12/15 11:16:34;;;;;;;24.30;17.40;;;12.40;99.90;;;;;;5072180;28;20877;-72
2023/12/15 11:19:00;;;;;;;24.17;18.20;;;12.60;99.90;;;;;;5071707;28;20907;-72
2023/12/15 11:21:27;;;;;;;26.80;16.03;;;12.80;99.90;;;;;;5073159;28;20415;-72
2023/12/15 11:24:04;;;;;;;144.63;104.27;;;12.70;99.90;;;;;;5110209;28;20549;-82
2023/12/15 11:26:37;;;;;;;154.47;96.03;;;12.70;99.90;;;;;;5112817;28;20408;-74
2023/12/15 11:29:15;;;;;;;34.60;22.93;;;12.60;99.90;;;;;;5113383;28;20416;-71
2023/12/15 11:31:41;;;;;;;31.50;23.63;;;12.70;99.90;;;;;;5112330;28;20393;-71
2023/12/15 11:34:08;;;;;;;25.27;15.50;;;13.00;99.90;;;;;;5113362;28;20416;-69
2023/12/15 11:36:42;;;;;;;25.10;15.37;;;13.20;99.90;;;;;;5111442;28;20175;-69
2023/12/15 11:39:12;;;;;;;25.07;16.20;;;13.10;99.90;;;;;;5111995;28;20493;-68
2023/12/15 11:41:38;;;;;;;26.67;16.20;;;12.90;99.90;;;;;;5112867;28;20538;-69
2023/12/15 11:44:04;;;;;;;22.47;15.10;;;12.60;99.90;;;;;;5113213;28;20613;-68
2023/12/15 11:46:30;;;;;;;24.10;15.93;;;12.50;99.90;;;;;;5112247;28;20826;-68
2023/12/15 11:48:55;;;;;;;24.27;16.37;;;12.30;99.90;;;;;;5113132;28;20261;-68
2023/12/15 11:51:28;;;;;;;24.27;15.97;;;12.20;99.90;;;;;;5102660;28;20258;-67
2023/12/15 11:53:55;;;;;;;23.87;16.53;;;12.10;99.90;;;;;;5109324;28;20183;-67
2023/12/15 11:56:21;;;;;;;23.20;15.17;;;12.00;99.90;;;;;;5112389;28;20431;-66
2023/12/15 11:58:47;;;;;;;26.20;17.43;;;11.80;99.90;;;;;;5113225;28;20439;-68
2023/12/15 12:01:15;;;;;;;29.87;18.90;;;11.70;99.90;;;;;;5112650;28;20168;-69
2023/12/15 12:03:43;;;;;;;29.67;18.50;;;11.60;99.90;;;;;;5111099;28;20498;-68
2023/12/15 12:06:09;;;;;;;26.03;16.53;;;11.60;99.90;;;;;;5117198;28;20420;-69
2023/12/15 12:08:36;;;;;;;28.60;19.00;;;11.50;99.90;;;;;;5116508;28;20405;-68
2023/12/15 12:11:04;;;;;;;28.57;18.20;;;11.40;99.90;;;;;;5099071;28;20462;-68
2023/12/15 12:13:37;;;;;;;27.83;15.90;;;11.40;99.90;;;;;;5116443;27;20903;-68
2023/12/15 12:16:03;;;;;;;27.50;16.13;;;11.40;99.90;;;;;;5117341;28;20884;-70
2023/12/15 12:18:30;;;;;;;28.77;17.07;;;11.40;99.90;;;;;;5116398;28;20457;-68
2023/12/15 12:20:59;;;;;;;28.10;16.80;;;11.30;99.90;;;;;;5117133;28;20438;-68
2023/12/15 12:23:28;;;;;;;29.80;17.93;;;11.30;99.90;;;;;;5112370;28;20456;-68
2023/12/15 12:25:58;;;;;;;28.47;16.50;;;11.30;99.90;;;;;;5116769;28;20962;-68